La Palma > ESTACION METEOROLÓGICA El Paso

DATOS ACTUALES Online

Ultima actulizacion 8 minutos

15.5 ºC

Temperatura

79

Humedad (%)

1017.5

Presión (mb)

0

Precipitación (mm)

6.4 ENE

Viento (Km/h)

DATOS DIARIOS

Temperatura últimas 24 horas (ºC)

Humedad últimas 24 horas (%)

Presión atmosférica últimas 24 horas (mb)

Precipitaciones últimas 23 horas (mm)

Viento últimas 24 horas (Km/h)

Hora Temperatura (°C) ºC Precipitación (mm) mm Presión (mb) mb Humedad (%) % Viento (Km/h) km/h
29 - 00:00 14.8 0 1018 81 14.5 E
29 - 01:00 14.6 0 1018 81 11.3 ENE
29 - 02:00 14.1 0 1018 82 14.5 E
29 - 03:00 14.6 0 1017 83 11.3 ENE
29 - 04:00 14.7 0 1017 83 6.4 ENE
29 - 05:00 14.5 0 1017 82 4.8 ENE
29 - 06:00 15.1 0 1018 82 6.4 ENE
29 - 07:00 15.6 0 1017 85 0 NNW
29 - 08:00 15.8 0 1018 85 1.6 WSW
29 - 09:00 15.9 0 1018 87 6.4 WSW
29 - 10:00 16.3 0 1018 82 0 SSW
29 - 11:00 16.9 0 1018 77 4.8 SW
29 - 12:00 18.1 0 1018 73 4.8 WNW
29 - 13:00 18.5 0 1018 73 17.7 WSW
29 - 14:00 18.4 0 1018 72 12.9 SW
29 - 15:00 19.1 0 1017 69 27.4 SW
29 - 16:00 18.7 0 1017 71 3.2 W
29 - 17:00 17.7 0 1017 75 14.5 SW
29 - 18:00 17.6 0 1017 79 14.5 SW
29 - 19:00 17.6 0 1017 77 16.1 SW
29 - 20:00 17.7 0 1017 75 8 SW
29 - 21:00 16.4 0 1017 77 6.4 SW
29 - 22:00 15.8 0 1018 78 8 E
29 - 23:00 16 0 1018 78 4.8 ENE
30 - 00:00 15.5 0 1018 79 6.4 ENE
Apalmet utiliza cookies propias y de terceros para mejorar la usabilidad y la experiencia web. Política de cookies.